sensor_id;sensor_type;location;lat;lon;timestamp;pressure;altitude;pressure_sealevel;temperature
28905;BMP280;60848;53.884;11.446;2024-03-08T00:01:17;102248.28;;;2.95
28905;BMP280;60848;53.884;11.446;2024-03-08T00:03:46;102245.50;;;2.86
28905;BMP280;60848;53.884;11.446;2024-03-08T00:06:14;102239.31;;;2.82
28905;BMP280;60848;53.884;11.446;2024-03-08T00:08:44;102243.72;;;2.82
28905;BMP280;60848;53.884;11.446;2024-03-08T00:11:16;102245.00;;;2.89
28905;BMP280;60848;53.884;11.446;2024-03-08T00:13:47;102246.25;;;2.92
28905;BMP280;60848;53.884;11.446;2024-03-08T00:16:15;102246.25;;;2.92
28905;BMP280;60848;53.884;11.446;2024-03-08T00:18:46;102250.66;;;2.91
28905;BMP280;60848;53.884;11.446;2024-03-08T00:21:16;102245.25;;;2.88
28905;BMP280;60848;53.884;11.446;2024-03-08T00:23:46;102247.56;;;2.84
28905;BMP280;60848;53.884;11.446;2024-03-08T00:26:15;102247.34;;;2.86
28905;BMP280;60848;53.884;11.446;2024-03-08T00:28:43;102242.41;;;2.89
28905;BMP280;60848;53.884;11.446;2024-03-08T00:31:12;102244.47;;;2.82
28905;BMP280;60848;53.884;11.446;2024-03-08T00:33:40;102242.16;;;2.81
28905;BMP280;60848;53.884;11.446;2024-03-08T00:36:09;102245.03;;;2.79
28905;BMP280;60848;53.884;11.446;2024-03-08T00:38:37;102238.56;;;2.82
28905;BMP280;60848;53.884;11.446;2024-03-08T00:41:07;102247.09;;;2.77
28905;BMP280;60848;53.884;11.446;2024-03-08T00:43:38;102238.84;;;2.75
28905;BMP280;60848;53.884;11.446;2024-03-08T00:46:06;102240.13;;;2.72
28905;BMP280;60848;53.884;11.446;2024-03-08T00:48:35;102238.59;;;2.72
28905;BMP280;60848;53.884;11.446;2024-03-08T00:51:05;102229.78;;;2.72
28905;BMP280;60848;53.884;11.446;2024-03-08T00:53:33;102222.59;;;2.69
28905;BMP280;60848;53.884;11.446;2024-03-08T00:56:02;102228.00;;;2.68
28905;BMP280;60848;53.884;11.446;2024-03-08T00:58:33;102225.91;;;2.70
28905;BMP280;60848;53.884;11.446;2024-03-08T01:01:04;102220.50;;;2.72
28905;BMP280;60848;53.884;11.446;2024-03-08T01:03:33;102217.94;;;2.72
28905;BMP280;60848;53.884;11.446;2024-03-08T01:06:01;102222.03;;;2.72
28905;BMP280;60848;53.884;11.446;2024-03-08T01:08:30;102220.25;;;2.73
28905;BMP280;60848;53.884;11.446;2024-03-08T01:11:01;102218.16;;;2.75
28905;BMP280;60848;53.884;11.446;2024-03-08T01:13:29;102212.50;;;2.73
28905;BMP280;60848;53.884;11.446;2024-03-08T01:15:59;102214.03;;;2.74
28905;BMP280;60848;53.884;11.446;2024-03-08T01:18:29;102209.13;;;2.72
28905;BMP280;60848;53.884;11.446;2024-03-08T01:20:57;102205.78;;;2.72
28905;BMP280;60848;53.884;11.446;2024-03-08T01:23:26;102205.53;;;2.68
28905;BMP280;60848;53.884;11.446;2024-03-08T01:25:54;102197.81;;;2.63
28905;BMP280;60848;53.884;11.446;2024-03-08T01:28:25;102193.91;;;2.66
28905;BMP280;60848;53.884;11.446;2024-03-08T01:30:54;102189.53;;;2.66
28905;BMP280;60848;53.884;11.446;2024-03-08T01:33:26;102187.22;;;2.65
28905;BMP280;60848;53.884;11.446;2024-03-08T01:35:54;102181.53;;;2.63
28905;BMP280;60848;53.884;11.446;2024-03-08T01:38:24;102180.75;;;2.62
28905;BMP280;60848;53.884;11.446;2024-03-08T01:40:52;102183.63;;;2.56
28905;BMP280;60848;53.884;11.446;2024-03-08T01:43:25;102178.00;;;2.49
28905;BMP280;60848;53.884;11.446;2024-03-08T01:45:55;102172.56;;;2.45
28905;BMP280;60848;53.884;11.446;2024-03-08T01:48:27;102170.28;;;2.39
28905;BMP280;60848;53.884;11.446;2024-03-08T01:50:57;102168.19;;;2.36
28905;BMP280;60848;53.884;11.446;2024-03-08T01:53:25;102168.25;;;2.26
28905;BMP280;60848;53.884;11.446;2024-03-08T01:55:57;102163.34;;;2.19
28905;BMP280;60848;53.884;11.446;2024-03-08T01:58:26;102150.72;;;2.18
28905;BMP280;60848;53.884;11.446;2024-03-08T02:00:57;102158.19;;;2.19
28905;BMP280;60848;53.884;11.446;2024-03-08T02:03:28;102152.53;;;2.17
28905;BMP280;60848;53.884;11.446;2024-03-08T02:06:01;102150.22;;;2.16
28905;BMP280;60848;53.884;11.446;2024-03-08T02:08:31;102151.50;;;2.13
28905;BMP280;60848;53.884;11.446;2024-03-08T02:11:04;102145.31;;;2.09
28905;BMP280;60848;53.884;11.446;2024-03-08T02:13:35;102150.22;;;2.06
28905;BMP280;60848;53.884;11.446;2024-03-08T02:16:04;102145.09;;;2.01
28905;BMP280;60848;53.884;11.446;2024-03-08T02:18:38;102144.28;;;1.95
28905;BMP280;60848;53.884;11.446;2024-03-08T02:21:09;102141.47;;;1.92
28905;BMP280;60848;53.884;11.446;2024-03-08T02:23:37;102143.81;;;1.83
28905;BMP280;60848;53.884;11.446;2024-03-08T02:26:07;102141.25;;;1.83
28905;BMP280;60848;53.884;11.446;2024-03-08T02:28:35;102134.53;;;1.77
28905;BMP280;60848;53.884;11.446;2024-03-08T02:31:07;102136.34;;;1.82
28905;BMP280;60848;53.884;11.446;2024-03-08T02:33:35;102137.09;;;1.87
28905;BMP280;60848;53.884;11.446;2024-03-08T02:36:05;102131.94;;;1.92
28905;BMP280;60848;53.884;11.446;2024-03-08T02:38:35;102132.72;;;1.83
28905;BMP280;60848;53.884;11.446;2024-03-08T02:41:04;102125.28;;;1.76
28905;BMP280;60848;53.884;11.446;2024-03-08T02:43:33;102132.47;;;1.79
28905;BMP280;60848;53.884;11.446;2024-03-08T02:46:01;102126.31;;;1.80
28905;BMP280;60848;53.884;11.446;2024-03-08T02:48:29;102118.81;;;1.78
28905;BMP280;60848;53.884;11.446;2024-03-08T02:51:00;102123.97;;;1.68
28905;BMP280;60848;53.884;11.446;2024-03-08T02:53:29;102127.84;;;1.71
28905;BMP280;60848;53.884;11.446;2024-03-08T02:55:59;102125.50;;;1.74
28905;BMP280;60848;53.884;11.446;2024-03-08T02:58:30;102125.78;;;1.73
28905;BMP280;60848;53.884;11.446;2024-03-08T03:00:59;102117.53;;;1.66
28905;BMP280;60848;53.884;11.446;2024-03-08T03:03:27;102118.03;;;1.63
28905;BMP280;60848;53.884;11.446;2024-03-08T03:05:55;102125.25;;;1.61
28905;BMP280;60848;53.884;11.446;2024-03-08T03:08:24;102119.84;;;1.62
28905;BMP280;60848;53.884;11.446;2024-03-08T03:10:52;102116.75;;;1.65
28905;BMP280;60848;53.884;11.446;2024-03-08T03:13:25;102119.59;;;1.64
28905;BMP280;60848;53.884;11.446;2024-03-08T03:15:53;102120.63;;;1.58
28905;BMP280;60848;53.884;11.446;2024-03-08T03:18:22;102117.53;;;1.56
28905;BMP280;60848;53.884;11.446;2024-03-08T03:20:51;102119.06;;;1.47
28905;BMP280;60848;53.884;11.446;2024-03-08T03:23:19;102115.97;;;1.45
28905;BMP280;60848;53.884;11.446;2024-03-08T03:25:48;102112.91;;;1.48
28905;BMP280;60848;53.884;11.446;2024-03-08T03:28:18;102113.94;;;1.52
28905;BMP280;60848;53.884;11.446;2024-03-08T03:30:52;102106.94;;;1.52
28905;BMP280;60848;53.884;11.446;2024-03-08T03:33:23;102107.47;;;1.54
28905;BMP280;60848;53.884;11.446;2024-03-08T03:35:52;102107.22;;;1.56
28905;BMP280;60848;53.884;11.446;2024-03-08T03:38:20;102100.25;;;1.61
28905;BMP280;60848;53.884;11.446;2024-03-08T03:40:50;102094.31;;;1.61
28905;BMP280;60848;53.884;11.446;2024-03-08T03:43:19;102096.66;;;1.57
28905;BMP280;60848;53.884;11.446;2024-03-08T03:45:48;102097.69;;;1.61
28905;BMP280;60848;53.884;11.446;2024-03-08T03:48:17;102102.59;;;1.68
28905;BMP280;60848;53.884;11.446;2024-03-08T03:50:46;102102.59;;;1.68
28905;BMP280;60848;53.884;11.446;2024-03-08T03:53:15;102105.91;;;1.68
28905;BMP280;60848;53.884;11.446;2024-03-08T03:55:43;102109.03;;;1.65
28905;BMP280;60848;53.884;11.446;2024-03-08T03:58:13;102111.34;;;1.62
28905;BMP280;60848;53.884;11.446;2024-03-08T04:00:41;102105.41;;;1.66
28905;BMP280;60848;53.884;11.446;2024-03-08T04:03:10;102105.41;;;1.66
28905;BMP280;60848;53.884;11.446;2024-03-08T04:05:40;102103.34;;;1.63
28905;BMP280;60848;53.884;11.446;2024-03-08T04:08:09;102108.50;;;1.68
28905;BMP280;60848;53.884;11.446;2024-03-08T04:10:37;102106.72;;;1.64
28905;BMP280;60848;53.884;11.446;2024-03-08T04:13:06;102103.59;;;1.67
28905;BMP280;60848;53.884;11.446;2024-03-08T04:15:34;102101.03;;;1.62
28905;BMP280;60848;53.884;11.446;2024-03-08T04:18:03;102093.31;;;1.52
28905;BMP280;60848;53.884;11.446;2024-03-08T04:20:34;102102.59;;;1.48
28905;BMP280;60848;53.884;11.446;2024-03-08T04:23:04;102099.75;;;1.49
28905;BMP280;60848;53.884;11.446;2024-03-08T04:25:32;102093.03;;;1.53
28905;BMP280;60848;53.884;11.446;2024-03-08T04:28:01;102100.50;;;1.55
28905;BMP280;60848;53.884;11.446;2024-03-08T04:30:29;102100.25;;;1.56
28905;BMP280;60848;53.884;11.446;2024-03-08T04:32:58;102096.13;;;1.50
28905;BMP280;60848;53.884;11.446;2024-03-08T04:35:27;102100.25;;;1.51
28905;BMP280;60848;53.884;11.446;2024-03-08T04:37:55;102096.41;;;1.49
28905;BMP280;60848;53.884;11.446;2024-03-08T04:40:26;102092.78;;;1.45
28905;BMP280;60848;53.884;11.446;2024-03-08T04:42:55;102090.44;;;1.48
28905;BMP280;60848;53.884;11.446;2024-03-08T04:45:23;102089.19;;;1.46
28905;BMP280;60848;53.884;11.446;2024-03-08T04:47:53;102088.41;;;1.45
28905;BMP280;60848;53.884;11.446;2024-03-08T04:50:24;102090.75;;;1.42
28905;BMP280;60848;53.884;11.446;2024-03-08T04:52:52;102087.88;;;1.38
28905;BMP280;60848;53.884;11.446;2024-03-08T04:55:20;102081.44;;;1.41
28905;BMP280;60848;53.884;11.446;2024-03-08T04:57:51;102083.25;;;1.40
28905;BMP280;60848;53.884;11.446;2024-03-08T05:00:20;102085.81;;;1.40
28905;BMP280;60848;53.884;11.446;2024-03-08T05:02:48;102096.63;;;1.42
28905;BMP280;60848;53.884;11.446;2024-03-08T05:05:20;102092.00;;;1.39
28905;BMP280;60848;53.884;11.446;2024-03-08T05:07:50;102085.56;;;1.37
28905;BMP280;60848;53.884;11.446;2024-03-08T05:10:18;102091.50;;;1.37
28905;BMP280;60848;53.884;11.446;2024-03-08T05:12:46;102088.41;;;1.35
28905;BMP280;60848;53.884;11.446;2024-03-08T05:15:16;102089.19;;;1.31
28905;BMP280;60848;53.884;11.446;2024-03-08T05:17:48;102088.94;;;1.27
28905;BMP280;60848;53.884;11.446;2024-03-08T05:20:17;102083.50;;;1.24
28905;BMP280;60848;53.884;11.446;2024-03-08T05:22:48;102075.25;;;1.22
28905;BMP280;60848;53.884;11.446;2024-03-08T05:25:18;102079.16;;;1.19
28905;BMP280;60848;53.884;11.446;2024-03-08T05:27:48;102080.94;;;1.19
28905;BMP280;60848;53.884;11.446;2024-03-08T05:30:18;102080.16;;;1.18
28905;BMP280;60848;53.884;11.446;2024-03-08T05:32:49;102069.59;;;1.15
28905;BMP280;60848;53.884;11.446;2024-03-08T05:35:17;102068.31;;;1.22
28905;BMP280;60848;53.884;11.446;2024-03-08T05:37:46;102071.66;;;1.28
28905;BMP280;60848;53.884;11.446;2024-03-08T05:40:14;102063.44;;;1.21
28905;BMP280;60848;53.884;11.446;2024-03-08T05:42:45;102068.34;;;1.27
28905;BMP280;60848;53.884;11.446;2024-03-08T05:45:18;102071.41;;;1.24
28905;BMP280;60848;53.884;11.446;2024-03-08T05:47:46;102066.50;;;1.18
28905;BMP280;60848;53.884;11.446;2024-03-08T05:50:16;102070.63;;;1.24
28905;BMP280;60848;53.884;11.446;2024-03-08T05:52:44;102068.59;;;1.21
28905;BMP280;60848;53.884;11.446;2024-03-08T05:55:14;102066.00;;;1.26
28905;BMP280;60848;53.884;11.446;2024-03-08T05:57:44;102068.31;;;1.22
28905;BMP280;60848;53.884;11.446;2024-03-08T06:00:14;102062.66;;;1.15
28905;BMP280;60848;53.884;11.446;2024-03-08T06:02:44;102070.88;;;1.02
28905;BMP280;60848;53.884;11.446;2024-03-08T06:05:13;102070.88;;;0.97
28905;BMP280;60848;53.884;11.446;2024-03-08T06:07:41;102076.03;;;0.97
28905;BMP280;60848;53.884;11.446;2024-03-08T06:10:10;102077.28;;;0.89
28905;BMP280;60848;53.884;11.446;2024-03-08T06:12:40;102064.91;;;0.92
28905;BMP280;60848;53.884;11.446;2024-03-08T06:15:09;102070.34;;;0.90
28905;BMP280;60848;53.884;11.446;2024-03-08T06:17:41;102071.63;;;0.82
28905;BMP280;60848;53.884;11.446;2024-03-08T06:20:12;102075.22;;;0.86
28905;BMP280;60848;53.884;11.446;2024-03-08T06:22:42;102077.78;;;0.92
28905;BMP280;60848;53.884;11.446;2024-03-08T06:25:12;102062.88;;;0.94
28905;BMP280;60848;53.884;11.446;2024-03-08T06:27:41;102069.06;;;0.98
28905;BMP280;60848;53.884;11.446;2024-03-08T06:30:10;102071.13;;;0.91
28905;BMP280;60848;53.884;11.446;2024-03-08T06:32:41;102072.41;;;0.83
28905;BMP280;60848;53.884;11.446;2024-03-08T06:35:12;102063.63;;;0.84
28905;BMP280;60848;53.884;11.446;2024-03-08T06:37:46;102065.72;;;0.87
28905;BMP280;60848;53.884;11.446;2024-03-08T06:40:15;102060.56;;;0.87
28905;BMP280;60848;53.884;11.446;2024-03-08T06:42:43;102062.59;;;0.90
28905;BMP280;60848;53.884;11.446;2024-03-08T06:45:12;102065.19;;;0.90
28905;BMP280;60848;53.884;11.446;2024-03-08T06:47:48;102053.34;;;0.94
28905;BMP280;60848;53.884;11.446;2024-03-08T06:50:18;102066.50;;;1.03
28905;BMP280;60848;53.884;11.446;2024-03-08T06:52:47;102064.16;;;0.96
28905;BMP280;60848;53.884;11.446;2024-03-08T06:55:20;102071.66;;;1.03
28905;BMP280;60848;53.884;11.446;2024-03-08T06:57:51;102066.47;;;0.93
28905;BMP280;60848;53.884;11.446;2024-03-08T07:00:20;102066.47;;;0.93
28905;BMP280;60848;53.884;11.446;2024-03-08T07:02:56;102071.63;;;0.93
28905;BMP280;60848;53.884;11.446;2024-03-08T07:05:29;102070.88;;;0.97
28905;BMP280;60848;53.884;11.446;2024-03-08T07:07:59;102064.44;;;0.95
28905;BMP280;60848;53.884;11.446;2024-03-08T07:10:28;102065.69;;;0.92
28905;BMP280;60848;53.884;11.446;2024-03-08T07:12:56;102071.88;;;0.96
28905;BMP280;60848;53.884;11.446;2024-03-08T07:15:24;102069.06;;;0.98
28905;BMP280;60848;53.884;11.446;2024-03-08T07:17:53;102063.41;;;1.01
28905;BMP280;60848;53.884;11.446;2024-03-08T07:20:22;102064.94;;;1.02
28905;BMP280;60848;53.884;11.446;2024-03-08T07:22:54;102071.38;;;1.04
28905;BMP280;60848;53.884;11.446;2024-03-08T07:25:22;102067.28;;;1.03
28905;BMP280;60848;53.884;11.446;2024-03-08T07:27:52;102059.03;;;1.11
28905;BMP280;60848;53.884;11.446;2024-03-08T07:30:21;102060.84;;;1.16
28905;BMP280;60848;53.884;11.446;2024-03-08T07:33:16;102055.97;;;1.19
28905;BMP280;60848;53.884;11.446;2024-03-08T07:35:44;102051.59;;;1.25
28905;BMP280;60848;53.884;11.446;2024-03-08T07:38:18;102054.69;;;1.32
28905;BMP280;60848;53.884;11.446;2024-03-08T07:40:50;102055.16;;;1.39
28905;BMP280;60848;53.884;11.446;2024-03-08T07:43:19;102054.38;;;1.43
28905;BMP280;60848;53.884;11.446;2024-03-08T07:45:49;102061.09;;;1.49
28905;BMP280;60848;53.884;11.446;2024-03-08T07:48:19;102055.94;;;1.49
28905;BMP280;60848;53.884;11.446;2024-03-08T07:50:48;102047.44;;;1.54
28905;BMP280;60848;53.884;11.446;2024-03-08T07:53:18;102055.41;;;1.57
28905;BMP280;60848;53.884;11.446;2024-03-08T07:55:47;102056.44;;;1.56
28905;BMP280;60848;53.884;11.446;2024-03-08T07:58:15;102049.47;;;1.57
28905;BMP280;60848;53.884;11.446;2024-03-08T08:00:46;102038.91;;;1.48
28905;BMP280;60848;53.884;11.446;2024-03-08T08:03:16;102043.53;;;1.46
28905;BMP280;60848;53.884;11.446;2024-03-08T08:05:50;102050.50;;;1.51
28905;BMP280;60848;53.884;11.446;2024-03-08T08:08:22;102041.25;;;1.45
28905;BMP280;60848;53.884;11.446;2024-03-08T08:10:55;102046.66;;;1.43
28905;BMP280;60848;53.884;11.446;2024-03-08T08:13:27;102042.00;;;1.50
28905;BMP280;60848;53.884;11.446;2024-03-08T08:15:59;102042.00;;;1.50
28905;BMP280;60848;53.884;11.446;2024-03-08T08:18:31;102043.28;;;1.53
28905;BMP280;60848;53.884;11.446;2024-03-08T08:21:00;102043.81;;;1.60
28905;BMP280;60848;53.884;11.446;2024-03-08T08:23:30;102050.00;;;1.59
28905;BMP280;60848;53.884;11.446;2024-03-08T08:25:58;102044.03;;;1.68
28905;BMP280;60848;53.884;11.446;2024-03-08T08:28:27;102047.41;;;1.69
28905;BMP280;60848;53.884;11.446;2024-03-08T08:30:55;102040.41;;;1.74
28905;BMP280;60848;53.884;11.446;2024-03-08T08:33:24;102039.91;;;1.77
28905;BMP280;60848;53.884;11.446;2024-03-08T08:35:52;102047.59;;;1.88
28905;BMP280;60848;53.884;11.446;2024-03-08T08:38:21;102045.22;;;2.06
28905;BMP280;60848;53.884;11.446;2024-03-08T08:40:51;102042.34;;;2.18
28905;BMP280;60848;53.884;11.446;2024-03-08T08:43:20;102040.00;;;2.26
28905;BMP280;60848;53.884;11.446;2024-03-08T08:45:54;102041.50;;;2.32
28905;BMP280;60848;53.884;11.446;2024-03-08T08:48:22;102042.22;;;2.43
28905;BMP280;60848;53.884;11.446;2024-03-08T08:50:52;102041.72;;;2.41
28905;BMP280;60848;53.884;11.446;2024-03-08T08:53:20;102032.91;;;2.47
28905;BMP280;60848;53.884;11.446;2024-03-08T08:55:50;102039.09;;;2.51
28905;BMP280;60848;53.884;11.446;2024-03-08T08:58:20;102032.09;;;2.56
28905;BMP280;60848;53.884;11.446;2024-03-08T09:00:51;102026.03;;;2.71
28905;BMP280;60848;53.884;11.446;2024-03-08T09:03:20;102022.53;;;2.91
28905;BMP280;60848;53.884;11.446;2024-03-08T09:05:49;102026.03;;;3.05
28905;BMP280;60848;53.884;11.446;2024-03-08T09:08:17;102028.13;;;3.31
28905;BMP280;60848;53.884;11.446;2024-03-08T09:10:46;102030.56;;;3.46
28905;BMP280;60848;53.884;11.446;2024-03-08T09:13:19;102031.69;;;3.64
28905;BMP280;60848;53.884;11.446;2024-03-08T09:15:57;102022.47;;;3.77
28905;BMP280;60848;53.884;11.446;2024-03-08T09:18:26;102022.44;;;4.00
28905;BMP280;60848;53.884;11.446;2024-03-08T09:20:54;102020.28;;;4.26
28905;BMP280;60848;53.884;11.446;2024-03-08T09:23:23;102017.63;;;4.49
28905;BMP280;60848;53.884;11.446;2024-03-08T09:25:52;102009.53;;;4.70
28905;BMP280;60848;53.884;11.446;2024-03-08T09:28:22;102005.44;;;4.82
28905;BMP280;60848;53.884;11.446;2024-03-08T09:30:54;102004.13;;;4.98
28905;BMP280;60848;53.884;11.446;2024-03-08T09:33:26;102005.88;;;5.16
28905;BMP280;60848;53.884;11.446;2024-03-08T09:35:56;101998.47;;;5.23
28905;BMP280;60848;53.884;11.446;2024-03-08T09:38:28;101996.94;;;5.36
28905;BMP280;60848;53.884;11.446;2024-03-08T09:40:57;101989.94;;;5.36
28905;BMP280;60848;53.884;11.446;2024-03-08T09:43:27;101980.81;;;5.52
28905;BMP280;60848;53.884;11.446;2024-03-08T09:45:56;101993.38;;;5.59
28905;BMP280;60848;53.884;11.446;2024-03-08T09:48:25;101987.00;;;5.79
28905;BMP280;60848;53.884;11.446;2024-03-08T09:50:56;101976.56;;;5.92
28905;BMP280;60848;53.884;11.446;2024-03-08T09:53:25;101977.03;;;6.08
28905;BMP280;60848;53.884;11.446;2024-03-08T09:55:53;101975.13;;;6.22
28905;BMP280;60848;53.884;11.446;2024-03-08T09:58:22;101975.16;;;6.52
28905;BMP280;60848;53.884;11.446;2024-03-08T10:01:07;101971.66;;;6.88
28905;BMP280;60848;53.884;11.446;2024-03-08T10:03:35;101969.56;;;6.98
28905;BMP280;60848;53.884;11.446;2024-03-08T10:06:04;101958.84;;;7.00
28905;BMP280;60848;53.884;11.446;2024-03-08T10:08:37;101951.41;;;7.15
28905;BMP280;60848;53.884;11.446;2024-03-08T10:11:08;101957.06;;;7.26
28905;BMP280;60848;53.884;11.446;2024-03-08T10:13:39;101951.56;;;7.27
28905;BMP280;60848;53.884;11.446;2024-03-08T10:16:14;101954.19;;;7.27
28905;BMP280;60848;53.884;11.446;2024-03-08T10:18:46;101947.00;;;7.33
28905;BMP280;60848;53.884;11.446;2024-03-08T10:21:14;101943.31;;;7.42
28905;BMP280;60848;53.884;11.446;2024-03-08T10:23:44;101933.69;;;7.51
28905;BMP280;60848;53.884;11.446;2024-03-08T10:26:13;101943.78;;;7.53
28905;BMP280;60848;53.884;11.446;2024-03-08T10:28:42;101938.44;;;7.41
28905;BMP280;60848;53.884;11.446;2024-03-08T10:31:14;101930.47;;;7.54
28905;BMP280;60848;53.884;11.446;2024-03-08T10:33:48;101935.22;;;7.52
28905;BMP280;60848;53.884;11.446;2024-03-08T10:36:16;101922.19;;;7.52
28905;BMP280;60848;53.884;11.446;2024-03-08T10:38:46;101923.88;;;7.48
28905;BMP280;60848;53.884;11.446;2024-03-08T10:41:18;101930.63;;;7.58
28905;BMP280;60848;53.884;11.446;2024-03-08T10:43:59;101918.03;;;7.60
28905;BMP280;60848;53.884;11.446;2024-03-08T10:46:50;101911.34;;;7.67
28905;BMP280;60848;53.884;11.446;2024-03-08T10:49:25;101913.31;;;7.87
28905;BMP280;60848;53.884;11.446;2024-03-08T10:51:54;101905.59;;;8.08
28905;BMP280;60848;53.884;11.446;2024-03-08T10:54:25;101905.09;;;8.23
28905;BMP280;60848;53.884;11.446;2024-03-08T10:56:54;101897.25;;;8.32
28905;BMP280;60848;53.884;11.446;2024-03-08T10:59:25;101903.66;;;8.43
28905;BMP280;60848;53.884;11.446;2024-03-08T11:01:56;101892.25;;;8.47
28905;BMP280;60848;53.884;11.446;2024-03-08T11:04:24;101885.19;;;8.56
28905;BMP280;60848;53.884;11.446;2024-03-08T11:06:52;101891.25;;;8.69
28905;BMP280;60848;53.884;11.446;2024-03-08T11:09:28;101881.47;;;8.86
28905;BMP280;60848;53.884;11.446;2024-03-08T11:12:21;101878.88;;;8.86
28905;BMP280;60848;53.884;11.446;2024-03-08T11:14:52;101878.22;;;8.89
28905;BMP280;60848;53.884;11.446;2024-03-08T11:17:25;101876.84;;;8.92
28905;BMP280;60848;53.884;11.446;2024-03-08T11:19:57;101874.44;;;8.87
28905;BMP280;60848;53.884;11.446;2024-03-08T11:22:29;101869.78;;;8.92
28905;BMP280;60848;53.884;11.446;2024-03-08T11:24:59;101864.22;;;8.73
28905;BMP280;60848;53.884;11.446;2024-03-08T11:27:29;101861.88;;;8.80
28905;BMP280;60848;53.884;11.446;2024-03-08T11:30:02;101855.63;;;8.93
28905;BMP280;60848;53.884;11.446;2024-03-08T11:32:50;101852.78;;;9.07
28905;BMP280;60848;53.884;11.446;2024-03-08T11:35:21;101838.72;;;8.99
28905;BMP280;60848;53.884;11.446;2024-03-08T11:37:51;101838.66;;;9.08
28905;BMP280;60848;53.884;11.446;2024-03-08T11:40:19;101830.63;;;9.13
28905;BMP280;60848;53.884;11.446;2024-03-08T11:42:48;101829.13;;;9.24
28905;BMP280;60848;53.884;11.446;2024-03-08T11:45:19;101831.47;;;9.25
28905;BMP280;60848;53.884;11.446;2024-03-08T11:47:50;101826.97;;;9.26
28905;BMP280;60848;53.884;11.446;2024-03-08T11:50:23;101810.69;;;9.29
28905;BMP280;60848;53.884;11.446;2024-03-08T11:52:51;101810.38;;;9.43
28905;BMP280;60848;53.884;11.446;2024-03-08T11:55:20;101812.06;;;9.47
28905;BMP280;60848;53.884;11.446;2024-03-08T11:57:59;101807.38;;;9.53
28905;BMP280;60848;53.884;11.446;2024-03-08T12:00:28;101800.66;;;9.64
28905;BMP280;60848;53.884;11.446;2024-03-08T12:03:04;101801.53;;;9.80
28905;BMP280;60848;53.884;11.446;2024-03-08T12:05:33;101801.22;;;9.81
28905;BMP280;60848;53.884;11.446;2024-03-08T12:08:02;101808.63;;;9.91
28905;BMP280;60848;53.884;11.446;2024-03-08T12:10:34;101803.91;;;9.85
28905;BMP280;60848;53.884;11.446;2024-03-08T12:13:03;101797.19;;;9.84
28905;BMP280;60848;53.884;11.446;2024-03-08T12:15:39;101792.75;;;9.72
28905;BMP280;60848;53.884;11.446;2024-03-08T12:18:09;101777.16;;;9.76
28905;BMP280;60848;53.884;11.446;2024-03-08T12:20:40;101775.31;;;9.76
28905;BMP280;60848;53.884;11.446;2024-03-08T12:23:14;101774.66;;;9.91
28905;BMP280;60848;53.884;11.446;2024-03-08T12:25:42;101769.34;;;10.00
28905;BMP280;60848;53.884;11.446;2024-03-08T12:28:11;101771.25;;;10.15
28905;BMP280;60848;53.884;11.446;2024-03-08T12:30:46;101764.06;;;10.12
28905;BMP280;60848;53.884;11.446;2024-03-08T12:33:20;101779.31;;;10.22
28905;BMP280;60848;53.884;11.446;2024-03-08T12:35:53;101758.47;;;10.25
28905;BMP280;60848;53.884;11.446;2024-03-08T12:38:23;101753.78;;;10.43
28905;BMP280;60848;53.884;11.446;2024-03-08T12:40:55;101749.09;;;10.48
28905;BMP280;60848;53.884;11.446;2024-03-08T12:43:24;101740.41;;;10.60
28905;BMP280;60848;53.884;11.446;2024-03-08T12:45:53;101751.03;;;10.79
28905;BMP280;60848;53.884;11.446;2024-03-08T12:48:23;101743.22;;;10.95
28905;BMP280;60848;53.884;11.446;2024-03-08T12:50:52;101734.00;;;11.01
28905;BMP280;60848;53.884;11.446;2024-03-08T12:53:23;101731.59;;;11.08
28905;BMP280;60848;53.884;11.446;2024-03-08T12:55:52;101738.81;;;11.14
28905;BMP280;60848;53.884;11.446;2024-03-08T12:58:23;101711.56;;;11.31
28905;BMP280;60848;53.884;11.446;2024-03-08T13:00:55;101721.00;;;11.51
28905;BMP280;60848;53.884;11.446;2024-03-08T13:03:25;101715.09;;;11.54
28905;BMP280;60848;53.884;11.446;2024-03-08T13:05:55;101715.66;;;11.63
28905;BMP280;60848;53.884;11.446;2024-03-08T13:08:24;101720.19;;;11.81
28905;BMP280;60848;53.884;11.446;2024-03-08T13:10:54;101711.44;;;11.93
28905;BMP280;60848;53.884;11.446;2024-03-08T13:13:23;101703.25;;;12.13
28905;BMP280;60848;53.884;11.446;2024-03-08T13:15:52;101715.00;;;12.19
28905;BMP280;60848;53.884;11.446;2024-03-08T13:18:20;101695.09;;;12.38
28905;BMP280;60848;53.884;11.446;2024-03-08T13:20:52;101715.16;;;12.27
28905;BMP280;60848;53.884;11.446;2024-03-08T13:23:21;101690.63;;;12.38
28905;BMP280;60848;53.884;11.446;2024-03-08T13:25:49;101692.88;;;12.81
28905;BMP280;60848;53.884;11.446;2024-03-08T13:28:18;101681.00;;;12.87
28905;BMP280;60848;53.884;11.446;2024-03-08T13:30:50;101669.34;;;12.88
28905;BMP280;60848;53.884;11.446;2024-03-08T13:33:25;101674.56;;;13.07
28905;BMP280;60848;53.884;11.446;2024-03-08T13:35:55;101666.66;;;13.33
28905;BMP280;60848;53.884;11.446;2024-03-08T13:38:32;101673.38;;;13.31
28905;BMP280;60848;53.884;11.446;2024-03-08T13:41:01;101671.41;;;13.24
28905;BMP280;60848;53.884;11.446;2024-03-08T13:43:30;101649.69;;;13.01
28905;BMP280;60848;53.884;11.446;2024-03-08T13:46:01;101647.25;;;12.89
28905;BMP280;60848;53.884;11.446;2024-03-08T13:48:30;101649.81;;;12.63
28905;BMP280;60848;53.884;11.446;2024-03-08T13:51:03;101633.94;;;12.56
28905;BMP280;60848;53.884;11.446;2024-03-08T13:53:32;101647.63;;;12.23
28905;BMP280;60848;53.884;11.446;2024-03-08T13:56:04;101640.63;;;11.70
28905;BMP280;60848;53.884;11.446;2024-03-08T13:58:33;101646.25;;;11.38
28905;BMP280;60848;53.884;11.446;2024-03-08T14:01:02;101610.75;;;11.06
28905;BMP280;60848;53.884;11.446;2024-03-08T14:03:33;101620.66;;;10.81
28905;BMP280;60848;53.884;11.446;2024-03-08T14:06:03;101622.97;;;10.55
28905;BMP280;60848;53.884;11.446;2024-03-08T14:08:32;101612.50;;;10.27
28905;BMP280;60848;53.884;11.446;2024-03-08T14:11:00;101618.16;;;10.14